Time;durP1;ratioP1;P1;durP2;ratioP2;P2;SDS_P1;SDS_P2;PMS_P1;PMS_P2;Temp;Humidity;BMP_temperature;BMP_pressure;BME280_temperature;BME280_humidity;BME280_pressure;Samples;Min_cycle;Max_cycle;Signal;HPM_P1;HPM_P2
2023/12/02 00:00:15;;;;;;;87.28;38.35;;;;;;;;;;1043222;28;20056;-68
2023/12/02 00:01:05;;;;;;;93.03;38.08;;;;;;;;;;1043000;28;20472;-68
2023/12/02 00:01:38;;;;;;;93.10;37.10;;;;;;;;;;1041536;28;20095;-68
2023/12/02 00:02:09;;;;;;;93.95;38.80;;;;;;;;;;1044111;28;20036;-68
2023/12/02 00:02:40;;;;;;;89.72;38.72;;;;;;;;;;1042637;28;20163;-68
2023/12/02 00:03:10;;;;;;;83.20;35.60;;;;;;;;;;1043623;28;20734;-68
2023/12/02 00:03:41;;;;;;;90.57;38.80;;;;;;;;;;1042553;28;20057;-68
2023/12/02 00:04:11;;;;;;;85.97;36.80;;;;;;;;;;1042927;28;20652;-68
2023/12/02 00:04:42;;;;;;;93.30;39.90;;;;;;;;;;1048554;28;20048;-68
2023/12/02 00:05:12;;;;;;;87.90;37.88;;;;;;;;;;1048026;28;20561;-68
2023/12/02 00:05:43;;;;;;;93.00;39.75;;;;;;;;;;1048959;28;20060;-68
2023/12/02 00:06:13;;;;;;;97.88;40.35;;;;;;;;;;1046968;28;20040;-69
2023/12/02 00:06:44;;;;;;;87.03;39.15;;;;;;;;;;1048007;28;20563;-69
2023/12/02 00:07:15;;;;;;;106.45;41.63;;;;;;;;;;1047467;28;20032;-68
2023/12/02 00:07:45;;;;;;;95.80;39.70;;;;;;;;;;1047530;28;20135;-68
2023/12/02 00:08:16;;;;;;;102.88;41.30;;;;;;;;;;1047592;28;20047;-68
2023/12/02 00:08:47;;;;;;;98.78;42.75;;;;;;;;;;1047745;28;20051;-68
2023/12/02 00:09:17;;;;;;;95.55;41.47;;;;;;;;;;1046843;28;20139;-68
2023/12/02 00:09:48;;;;;;;99.10;42.35;;;;;;;;;;1048145;28;20033;-68
2023/12/02 00:10:18;;;;;;;94.28;41.00;;;;;;;;;;1048140;28;20044;-68
2023/12/02 00:10:49;;;;;;;100.90;40.47;;;;;;;;;;1046625;28;20185;-68
2023/12/02 00:11:20;;;;;;;97.55;40.63;;;;;;;;;;1047666;28;20059;-68
2023/12/02 00:11:50;;;;;;;96.28;39.55;;;;;;;;;;1047012;28;20054;-68
2023/12/02 00:12:21;;;;;;;103.03;41.10;;;;;;;;;;1047133;28;20047;-68
2023/12/02 00:12:51;;;;;;;100.90;42.45;;;;;;;;;;1048119;28;20519;-68
2023/12/02 00:13:22;;;;;;;105.25;41.90;;;;;;;;;;1046375;28;20632;-68
2023/12/02 00:13:52;;;;;;;98.20;41.33;;;;;;;;;;1047143;28;20105;-68
2023/12/02 00:14:23;;;;;;;98.97;41.03;;;;;;;;;;1046152;28;20039;-68
2023/12/02 00:14:54;;;;;;;103.47;42.45;;;;;;;;;;1048123;28;20039;-68
2023/12/02 00:15:25;;;;;;;100.95;40.65;;;;;;;;;;1044917;28;20047;-68
2023/12/02 00:15:55;;;;;;;112.43;41.58;;;;;;;;;;1043843;28;22136;-68
2023/12/02 00:16:26;;;;;;;107.30;43.88;;;;;;;;;;1044889;28;20527;-68
2023/12/02 00:16:56;;;;;;;104.82;43.53;;;;;;;;;;1047616;28;20581;-68
2023/12/02 00:17:27;;;;;;;96.57;40.92;;;;;;;;;;1044625;28;20036;-68
2023/12/02 00:17:57;;;;;;;101.35;43.33;;;;;;;;;;1043266;28;20048;-68
2023/12/02 00:18:28;;;;;;;99.55;41.33;;;;;;;;;;1042724;28;20041;-69
2023/12/02 00:18:58;;;;;;;112.05;42.35;;;;;;;;;;1043982;28;20041;-69
2023/12/02 00:19:29;;;;;;;99.53;41.95;;;;;;;;;;1044140;28;20098;-68
2023/12/02 00:19:59;;;;;;;100.15;42.45;;;;;;;;;;1040319;28;20041;-68
2023/12/02 00:20:30;;;;;;;97.68;39.03;;;;;;;;;;1039494;28;20040;-68
2023/12/02 00:21:01;;;;;;;94.13;41.08;;;;;;;;;;1044539;28;20052;-68
2023/12/02 00:21:31;;;;;;;100.75;42.03;;;;;;;;;;1044964;28;20619;-68
2023/12/02 00:22:03;;;;;;;97.40;40.47;;;;;;;;;;1043499;28;20040;-68
2023/12/02 00:22:33;;;;;;;100.68;41.65;;;;;;;;;;1043669;28;20048;-68
2023/12/02 00:23:04;;;;;;;95.97;39.80;;;;;;;;;;1044014;28;20032;-68
2023/12/02 00:23:34;;;;;;;99.93;42.50;;;;;;;;;;1044462;28;20060;-68
2023/12/02 00:24:05;;;;;;;102.38;43.92;;;;;;;;;;1043937;28;20049;-68
2023/12/02 00:24:36;;;;;;;99.07;40.97;;;;;;;;;;1044015;28;20044;-68
2023/12/02 00:25:07;;;;;;;95.55;40.67;;;;;;;;;;1043930;28;20079;-68
2023/12/02 00:25:37;;;;;;;98.13;40.35;;;;;;;;;;1043393;28;20131;-68
2023/12/02 00:26:08;;;;;;;99.80;42.00;;;;;;;;;;1044260;28;20059;-68
2023/12/02 00:26:39;;;;;;;102.75;42.88;;;;;;;;;;1046502;28;21205;-68
2023/12/02 00:27:09;;;;;;;101.85;44.13;;;;;;;;;;1044818;28;20413;-68
2023/12/02 00:27:40;;;;;;;110.82;44.20;;;;;;;;;;1044620;28;20124;-68
2023/12/02 00:28:10;;;;;;;109.72;44.35;;;;;;;;;;1049072;28;20040;-68
2023/12/02 00:28:41;;;;;;;106.72;42.80;;;;;;;;;;1047168;28;20072;-68
2023/12/02 00:29:11;;;;;;;122.80;46.65;;;;;;;;;;1046060;28;20094;-68
2023/12/02 00:29:42;;;;;;;107.85;45.35;;;;;;;;;;1045454;28;20049;-68
2023/12/02 00:30:13;;;;;;;105.70;45.67;;;;;;;;;;1042778;28;20529;-69
2023/12/02 00:30:43;;;;;;;116.47;46.40;;;;;;;;;;1044760;28;20468;-68
2023/12/02 00:31:14;;;;;;;127.57;48.33;;;;;;;;;;1043712;28;20045;-68
2023/12/02 00:31:44;;;;;;;131.75;51.75;;;;;;;;;;1044259;28;20070;-68
2023/12/02 00:32:15;;;;;;;126.15;49.67;;;;;;;;;;1043511;28;20044;-68
2023/12/02 00:32:46;;;;;;;123.07;47.63;;;;;;;;;;1045325;28;20101;-68
2023/12/02 00:33:16;;;;;;;120.72;47.58;;;;;;;;;;1044098;28;20044;-68
2023/12/02 00:33:47;;;;;;;116.97;44.72;;;;;;;;;;1045275;28;20040;-68
2023/12/02 00:34:17;;;;;;;115.45;46.22;;;;;;;;;;1043869;28;20167;-68
2023/12/02 00:34:48;;;;;;;118.82;47.25;;;;;;;;;;1043737;28;21235;-68
2023/12/02 00:35:19;;;;;;;103.75;42.63;;;;;;;;;;1043564;28;20550;-68
2023/12/02 00:35:49;;;;;;;107.72;46.28;;;;;;;;;;1043448;28;20041;-68
2023/12/02 00:36:20;;;;;;;99.07;44.90;;;;;;;;;;1043501;28;20037;-68
2023/12/02 00:36:50;;;;;;;108.80;44.53;;;;;;;;;;1044350;28;20056;-69
2023/12/02 00:37:21;;;;;;;110.75;44.20;;;;;;;;;;1044528;28;20036;-68
2023/12/02 00:37:51;;;;;;;99.82;42.85;;;;;;;;;;1043997;28;20040;-68
2023/12/02 00:38:22;;;;;;;91.68;41.92;;;;;;;;;;1043529;28;20459;-68
2023/12/02 00:38:53;;;;;;;94.43;40.08;;;;;;;;;;1043813;28;20068;-68
2023/12/02 00:39:23;;;;;;;118.22;45.05;;;;;;;;;;1045079;28;20041;-68
2023/12/02 00:39:54;;;;;;;100.45;41.95;;;;;;;;;;1043386;28;20098;-68
2023/12/02 00:40:25;;;;;;;111.28;42.63;;;;;;;;;;1044094;28;20041;-68
2023/12/02 00:40:56;;;;;;;107.85;41.58;;;;;;;;;;1043861;28;20139;-68
2023/12/02 00:41:27;;;;;;;93.35;38.28;;;;;;;;;;1044611;28;20569;-68
2023/12/02 00:41:57;;;;;;;101.55;41.33;;;;;;;;;;1042924;28;20870;-68
2023/12/02 00:42:28;;;;;;;95.47;40.53;;;;;;;;;;1043944;28;20451;-68
2023/12/02 00:42:59;;;;;;;97.15;40.42;;;;;;;;;;1043646;28;20045;-68
2023/12/02 00:43:30;;;;;;;94.95;39.15;;;;;;;;;;1046207;28;20588;-68
2023/12/02 00:44:00;;;;;;;95.25;40.60;;;;;;;;;;1045302;28;20522;-68
2023/12/02 00:44:31;;;;;;;96.57;40.80;;;;;;;;;;1046386;28;20068;-68
2023/12/02 00:45:01;;;;;;;102.80;42.78;;;;;;;;;;1047401;28;20052;-68
2023/12/02 00:45:32;;;;;;;98.75;39.47;;;;;;;;;;1044962;28;20068;-68
2023/12/02 00:46:03;;;;;;;91.70;39.90;;;;;;;;;;1046710;28;20072;-68
2023/12/02 00:46:33;;;;;;;94.57;39.40;;;;;;;;;;1045873;28;20120;-68
2023/12/02 00:47:04;;;;;;;92.65;39.55;;;;;;;;;;1049759;28;20040;-68
2023/12/02 00:47:34;;;;;;;104.00;41.05;;;;;;;;;;1049224;28;20442;-68
2023/12/02 00:48:05;;;;;;;92.00;41.92;;;;;;;;;;1050378;28;20131;-68
2023/12/02 00:48:36;;;;;;;99.00;41.35;;;;;;;;;;1049889;28;20812;-68
2023/12/02 00:49:06;;;;;;;99.15;42.28;;;;;;;;;;1048675;28;20056;-68
2023/12/02 00:49:37;;;;;;;90.22;39.35;;;;;;;;;;1050701;28;20051;-68
2023/12/02 00:50:07;;;;;;;101.57;39.85;;;;;;;;;;1048353;28;20463;-68
2023/12/02 00:50:38;;;;;;;87.07;38.30;;;;;;;;;;1048764;28;20105;-68
2023/12/02 00:51:09;;;;;;;93.35;42.75;;;;;;;;;;1050225;28;20036;-68
2023/12/02 00:51:39;;;;;;;87.32;39.42;;;;;;;;;;1049711;28;20036;-68
2023/12/02 00:52:10;;;;;;;93.95;39.90;;;;;;;;;;1050141;28;20602;-68
2023/12/02 00:52:40;;;;;;;88.05;38.85;;;;;;;;;;1049533;28;20058;-68
2023/12/02 00:53:11;;;;;;;85.60;39.40;;;;;;;;;;1050335;28;20158;-68
2023/12/02 00:53:41;;;;;;;95.70;39.95;;;;;;;;;;1051191;28;20066;-68
2023/12/02 00:54:12;;;;;;;96.15;38.35;;;;;;;;;;1050687;28;20064;-68
2023/12/02 00:54:43;;;;;;;91.15;40.42;;;;;;;;;;1051247;28;20040;-68
2023/12/02 00:55:13;;;;;;;96.85;41.33;;;;;;;;;;1050874;28;20050;-68
2023/12/02 00:55:44;;;;;;;94.10;38.40;;;;;;;;;;1051100;28;20047;-68
2023/12/02 00:56:15;;;;;;;103.45;40.08;;;;;;;;;;1049847;28;20143;-68
2023/12/02 00:56:45;;;;;;;100.72;41.22;;;;;;;;;;1048678;28;20049;-68
2023/12/02 00:57:16;;;;;;;103.25;40.42;;;;;;;;;;1050669;28;20040;-69
2023/12/02 00:57:46;;;;;;;94.18;38.40;;;;;;;;;;1050770;28;20059;-68
2023/12/02 00:58:17;;;;;;;88.25;40.05;;;;;;;;;;1051334;28;20510;-68
2023/12/02 00:58:47;;;;;;;97.45;40.78;;;;;;;;;;1050643;28;20475;-69
2023/12/02 00:59:18;;;;;;;92.68;38.92;;;;;;;;;;1050871;28;20040;-68
2023/12/02 00:59:48;;;;;;;100.90;40.60;;;;;;;;;;1051300;28;20056;-68
2023/12/02 01:00:19;;;;;;;95.13;40.88;;;;;;;;;;1050124;28;20075;-68
2023/12/02 01:00:50;;;;;;;110.90;41.90;;;;;;;;;;1049922;28;20046;-68
2023/12/02 01:01:20;;;;;;;101.63;40.25;;;;;;;;;;1050924;28;20040;-68
2023/12/02 01:01:51;;;;;;;88.82;39.13;;;;;;;;;;1051314;28;20044;-68
2023/12/02 01:02:21;;;;;;;98.57;41.50;;;;;;;;;;1049713;28;20135;-69
2023/12/02 01:02:52;;;;;;;99.40;40.78;;;;;;;;;;1051106;28;20054;-68
2023/12/02 01:03:23;;;;;;;93.18;40.60;;;;;;;;;;1049644;28;20048;-69
2023/12/02 01:03:53;;;;;;;97.00;40.78;;;;;;;;;;1050835;28;20040;-69
2023/12/02 01:04:24;;;;;;;101.55;40.15;;;;;;;;;;1050512;28;20040;-68
2023/12/02 01:04:54;;;;;;;98.03;39.63;;;;;;;;;;1050996;28;20063;-68
2023/12/02 01:05:25;;;;;;;97.70;40.33;;;;;;;;;;1050020;28;20118;-69
2023/12/02 01:05:56;;;;;;;99.53;41.15;;;;;;;;;;1050235;28;20556;-68
2023/12/02 01:06:27;;;;;;;103.68;41.85;;;;;;;;;;1050673;28;20509;-69
2023/12/02 01:06:57;;;;;;;101.45;41.25;;;;;;;;;;1051927;28;20430;-68
2023/12/02 01:07:28;;;;;;;92.68;41.03;;;;;;;;;;1049354;28;20049;-68
2023/12/02 01:07:58;;;;;;;101.80;42.00;;;;;;;;;;1051475;28;20759;-68
2023/12/02 01:08:29;;;;;;;94.93;41.03;;;;;;;;;;1049349;28;20450;-69
2023/12/02 01:08:59;;;;;;;106.97;41.08;;;;;;;;;;1049782;28;20728;-69
2023/12/02 01:09:30;;;;;;;103.57;41.47;;;;;;;;;;1050078;28;20118;-68
2023/12/02 01:10:04;;;;;;;112.93;43.03;;;;;;;;;;1050933;28;20043;-68
2023/12/02 01:10:34;;;;;;;96.22;39.58;;;;;;;;;;1050273;28;20044;-68
2023/12/02 01:11:05;;;;;;;97.05;42.00;;;;;;;;;;1050729;28;20063;-68
2023/12/02 01:11:36;;;;;;;100.70;40.47;;;;;;;;;;1050798;28;20118;-69
2023/12/02 01:12:07;;;;;;;113.47;42.42;;;;;;;;;;1050028;28;20052;-69
2023/12/02 01:12:39;;;;;;;111.18;43.10;;;;;;;;;;1050233;28;20051;-69
2023/12/02 01:13:09;;;;;;;98.65;41.83;;;;;;;;;;1049463;28;20052;-68
2023/12/02 01:13:40;;;;;;;102.88;41.95;;;;;;;;;;1051012;28;20044;-68
2023/12/02 01:14:10;;;;;;;113.70;43.33;;;;;;;;;;1050198;28;20044;-68
2023/12/02 01:14:41;;;;;;;103.10;43.53;;;;;;;;;;1050926;28;20392;-68
2023/12/02 01:15:12;;;;;;;108.22;43.47;;;;;;;;;;1049913;28;20040;-68
2023/12/02 01:15:42;;;;;;;96.10;42.28;;;;;;;;;;1051532;28;20044;-69
2023/12/02 01:16:13;;;;;;;103.22;43.83;;;;;;;;;;1049091;28;20040;-68
2023/12/02 01:16:43;;;;;;;98.38;42.35;;;;;;;;;;1049908;28;20036;-68
2023/12/02 01:17:14;;;;;;;110.85;41.33;;;;;;;;;;1050223;28;20047;-68
2023/12/02 01:17:44;;;;;;;96.30;41.20;;;;;;;;;;1051265;28;20109;-68
2023/12/02 01:18:15;;;;;;;106.82;43.00;;;;;;;;;;1050307;28;20124;-69
2023/12/02 01:18:46;;;;;;;99.03;43.05;;;;;;;;;;1050610;28;20190;-69
2023/12/02 01:19:16;;;;;;;100.68;42.78;;;;;;;;;;1051017;28;20044;-69
2023/12/02 01:19:47;;;;;;;102.28;42.28;;;;;;;;;;1050887;28;20104;-69
2023/12/02 01:20:18;;;;;;;97.05;43.25;;;;;;;;;;1050500;28;21743;-68
2023/12/02 01:20:48;;;;;;;98.40;41.30;;;;;;;;;;1049182;28;20365;-69
2023/12/02 01:21:19;;;;;;;97.90;40.88;;;;;;;;;;1049365;28;20048;-69
2023/12/02 01:21:49;;;;;;;102.75;41.35;;;;;;;;;;1051321;28;20708;-69
2023/12/02 01:22:20;;;;;;;97.20;41.25;;;;;;;;;;1050710;28;20047;-69
2023/12/02 01:22:50;;;;;;;100.88;42.22;;;;;;;;;;1049911;28;20147;-69
2023/12/02 01:23:21;;;;;;;93.72;40.40;;;;;;;;;;1051352;28;20040;-69
2023/12/02 01:23:51;;;;;;;110.07;41.70;;;;;;;;;;1051453;28;20111;-69
2023/12/02 01:24:22;;;;;;;101.05;40.15;;;;;;;;;;1049890;28;20067;-68
2023/12/02 01:24:52;;;;;;;93.32;39.90;;;;;;;;;;1051390;28;20048;-69
2023/12/02 01:25:23;;;;;;;98.05;40.90;;;;;;;;;;1050738;28;20051;-69
2023/12/02 01:25:54;;;;;;;101.25;43.05;;;;;;;;;;1049493;28;20067;-69
2023/12/02 01:26:24;;;;;;;99.78;43.75;;;;;;;;;;1049506;28;20044;-68
2023/12/02 01:26:55;;;;;;;107.60;44.05;;;;;;;;;;1050846;28;20627;-69
2023/12/02 01:27:26;;;;;;;101.90;42.17;;;;;;;;;;1049747;28;20036;-68
2023/12/02 01:27:56;;;;;;;102.93;41.92;;;;;;;;;;1050424;28;20057;-68
2023/12/02 01:28:27;;;;;;;104.45;43.70;;;;;;;;;;1049339;28;20047;-69
2023/12/02 01:28:58;;;;;;;102.40;42.47;;;;;;;;;;1051229;28;20075;-69
2023/12/02 01:29:28;;;;;;;101.20;42.63;;;;;;;;;;1051061;28;20044;-69
2023/12/02 01:30:00;;;;;;;100.70;42.13;;;;;;;;;;1051174;28;20499;-69
2023/12/02 01:30:30;;;;;;;101.53;40.85;;;;;;;;;;1050573;28;20110;-69
2023/12/02 01:31:01;;;;;;;98.55;39.67;;;;;;;;;;1050641;28;20106;-68
2023/12/02 01:31:31;;;;;;;101.47;40.97;;;;;;;;;;1048172;28;20048;-68
2023/12/02 01:32:02;;;;;;;106.53;44.53;;;;;;;;;;1049680;28;20063;-68
2023/12/02 01:32:33;;;;;;;100.47;42.90;;;;;;;;;;1050264;28;20079;-68
2023/12/02 01:33:03;;;;;;;97.38;41.22;;;;;;;;;;1050632;28;20043;-69
2023/12/02 01:33:33;;;;;;;105.10;42.72;;;;;;;;;;1050047;28;20048;-69
2023/12/02 01:34:04;;;;;;;96.35;43.28;;;;;;;;;;1050689;28;20036;-69
2023/12/02 01:34:35;;;;;;;111.20;43.30;;;;;;;;;;1050997;28;20044;-68
2023/12/02 01:35:06;;;;;;;97.47;43.38;;;;;;;;;;1050382;28;20040;-69
2023/12/02 01:35:36;;;;;;;106.45;41.95;;;;;;;;;;1049894;28;20044;-69
2023/12/02 01:36:11;;;;;;;106.07;43.28;;;;;;;;;;1049457;28;20526;-68
2023/12/02 01:36:41;;;;;;;105.20;42.65;;;;;;;;;;1046363;28;20057;-68
2023/12/02 01:37:12;;;;;;;105.63;40.72;;;;;;;;;;1043597;28;20053;-69
2023/12/02 01:37:43;;;;;;;92.57;42.80;;;;;;;;;;1049727;28;20036;-69
2023/12/02 01:38:13;;;;;;;100.68;41.97;;;;;;;;;;1050648;28;20057;-69
2023/12/02 01:38:44;;;;;;;102.00;42.55;;;;;;;;;;1051239;28;20064;-69
2023/12/02 01:39:15;;;;;;;98.75;40.70;;;;;;;;;;1049950;28;20569;-68
2023/12/02 01:39:45;;;;;;;94.43;42.75;;;;;;;;;;1046815;28;20135;-68
2023/12/02 01:40:16;;;;;;;98.18;43.28;;;;;;;;;;1046782;28;20047;-69
2023/12/02 01:40:46;;;;;;;103.25;40.92;;;;;;;;;;1041071;28;20052;-68
2023/12/02 01:41:17;;;;;;;94.60;40.22;;;;;;;;;;1045024;28;20053;-68
2023/12/02 01:41:47;;;;;;;94.25;40.58;;;;;;;;;;1045414;28;20791;-68
2023/12/02 01:42:19;;;;;;;101.90;40.63;;;;;;;;;;1045534;28;20048;-69
2023/12/02 01:42:49;;;;;;;103.68;41.25;;;;;;;;;;1045365;28;20048;-68
2023/12/02 01:43:25;;;;;;;97.40;41.60;;;;;;;;;;1046011;28;20044;-68
2023/12/02 01:43:55;;;;;;;99.95;40.58;;;;;;;;;;1045329;28;20495;-68
2023/12/02 01:44:26;;;;;;;101.07;42.13;;;;;;;;;;1046784;28;20457;-69
2023/12/02 01:44:57;;;;;;;95.45;40.65;;;;;;;;;;1047294;28;20397;-68
2023/12/02 01:45:27;;;;;;;94.68;40.42;;;;;;;;;;1045397;28;20051;-69
2023/12/02 01:45:58;;;;;;;92.65;39.63;;;;;;;;;;1045585;28;20054;-68
2023/12/02 01:46:29;;;;;;;93.78;40.75;;;;;;;;;;1045153;28;20040;-68
2023/12/02 01:47:00;;;;;;;103.03;42.42;;;;;;;;;;1045932;28;20373;-68
2023/12/02 01:47:31;;;;;;;99.97;42.35;;;;;;;;;;1043854;28;20049;-68
2023/12/02 01:48:02;;;;;;;93.22;40.03;;;;;;;;;;1046192;28;20068;-69
2023/12/02 01:48:35;;;;;;;101.80;40.97;;;;;;;;;;1048294;28;20050;-68
2023/12/02 01:49:08;;;;;;;95.10;41.20;;;;;;;;;;1047244;28;20040;-68
2023/12/02 01:49:39;;;;;;;95.75;38.65;;;;;;;;;;1046434;28;20664;-68
2023/12/02 01:50:10;;;;;;;101.20;42.17;;;;;;;;;;1046957;28;20483;-69
2023/12/02 01:50:41;;;;;;;97.93;41.00;;;;;;;;;;1044898;28;20496;-68
2023/12/02 01:51:12;;;;;;;91.35;41.40;;;;;;;;;;1045114;28;20112;-68
2023/12/02 01:51:42;;;;;;;93.07;40.13;;;;;;;;;;1045154;28;20033;-69
2023/12/02 01:52:13;;;;;;;105.88;43.50;;;;;;;;;;1044435;28;20044;-68
2023/12/02 01:52:44;;;;;;;93.15;39.70;;;;;;;;;;1044928;28;20049;-68
2023/12/02 01:53:14;;;;;;;95.35;41.17;;;;;;;;;;1044752;28;20043;-68
2023/12/02 01:53:45;;;;;;;93.88;41.08;;;;;;;;;;1048839;28;20048;-69
2023/12/02 01:54:17;;;;;;;104.20;42.17;;;;;;;;;;1049763;28;20055;-69
2023/12/02 01:54:47;;;;;;;95.88;41.08;;;;;;;;;;1049459;28;20109;-69
2023/12/02 01:55:18;;;;;;;113.10;43.88;;;;;;;;;;1049193;28;20451;-68
2023/12/02 01:55:49;;;;;;;107.68;42.60;;;;;;;;;;1047304;28;20048;-68
2023/12/02 01:56:19;;;;;;;93.57;40.55;;;;;;;;;;1045897;28;20057;-69
2023/12/02 01:56:50;;;;;;;100.75;43.97;;;;;;;;;;1045479;28;20098;-68
2023/12/02 01:57:20;;;;;;;101.28;42.80;;;;;;;;;;1044214;28;20070;-68
2023/12/02 01:57:51;;;;;;;94.07;40.67;;;;;;;;;;1045436;28;20059;-69
2023/12/02 01:58:22;;;;;;;104.07;42.53;;;;;;;;;;1045085;28;20093;-69
2023/12/02 01:58:52;;;;;;;112.50;45.65;;;;;;;;;;1045256;28;20094;-69
2023/12/02 01:59:23;;;;;;;103.60;45.17;;;;;;;;;;1047492;28;20064;-69
2023/12/02 01:59:54;;;;;;;105.45;41.92;;;;;;;;;;1049717;28;20476;-68
2023/12/02 02:00:25;;;;;;;103.72;41.92;;;;;;;;;;1050439;28;20064;-69
2023/12/02 02:00:55;;;;;;;102.45;42.88;;;;;;;;;;1049618;28;20037;-68
2023/12/02 02:01:26;;;;;;;101.40;44.83;;;;;;;;;;1049775;28;20097;-69
2023/12/02 02:01:56;;;;;;;97.60;42.63;;;;;;;;;;1049882;28;20043;-68
2023/12/02 02:02:27;;;;;;;95.32;43.33;;;;;;;;;;1049850;28;20047;-68
2023/12/02 02:02:58;;;;;;;103.05;42.08;;;;;;;;;;1051259;28;20039;-68
2023/12/02 02:03:28;;;;;;;104.38;44.50;;;;;;;;;;1049485;28;20052;-69
2023/12/02 02:03:59;;;;;;;102.07;44.22;;;;;;;;;;1048722;28;20055;-69
2023/12/02 02:04:30;;;;;;;101.47;42.58;;;;;;;;;;1049830;28;20044;-69
2023/12/02 02:05:01;;;;;;;104.45;43.22;;;;;;;;;;1050923;28;20082;-69
2023/12/02 02:05:32;;;;;;;112.35;44.10;;;;;;;;;;1050253;28;20055;-69
2023/12/02 02:06:03;;;;;;;99.97;42.97;;;;;;;;;;1050172;28;20036;-68
2023/12/02 02:06:33;;;;;;;90.20;42.30;;;;;;;;;;1050299;28;20052;-68
2023/12/02 02:07:04;;;;;;;108.53;43.67;;;;;;;;;;1050968;28;20040;-68
2023/12/02 02:07:35;;;;;;;98.95;42.35;;;;;;;;;;1049378;28;20048;-69
2023/12/02 02:08:05;;;;;;;108.90;42.33;;;;;;;;;;1050665;28;20049;-68
2023/12/02 02:08:36;;;;;;;105.70;45.25;;;;;;;;;;1050124;28;20547;-69
2023/12/02 02:09:06;;;;;;;101.57;43.15;;;;;;;;;;1051228;28;20039;-68
2023/12/02 02:09:48;;;;;;;104.60;43.58;;;;;;;;;;1050347;28;20052;-68
2023/12/02 02:10:22;;;;;;;105.63;41.75;;;;;;;;;;1049142;28;20052;-69
2023/12/02 02:10:58;;;;;;;103.22;42.67;;;;;;;;;;1050612;28;20130;-69
2023/12/02 02:11:29;;;;;;;103.35;41.67;;;;;;;;;;1050699;28;20052;-68
2023/12/02 02:12:00;;;;;;;99.80;42.28;;;;;;;;;;1050577;28;20035;-69
2023/12/02 02:12:30;;;;;;;104.93;44.33;;;;;;;;;;1048482;28;23569;-69
2023/12/02 02:13:01;;;;;;;97.32;41.60;;;;;;;;;;1051261;28;20067;-69
2023/12/02 02:13:33;;;;;;;103.05;44.55;;;;;;;;;;1050846;28;20048;-69
2023/12/02 02:14:03;;;;;;;96.85;42.22;;;;;;;;;;1049641;28;20169;-68
2023/12/02 02:14:34;;;;;;;98.05;41.10;;;;;;;;;;1049738;28;20047;-69
2023/12/02 02:15:05;;;;;;;95.00;42.90;;;;;;;;;;1050138;28;20123;-69
2023/12/02 02:15:35;;;;;;;105.97;44.05;;;;;;;;;;1049379;28;20379;-68
2023/12/02 02:16:06;;;;;;;98.65;43.17;;;;;;;;;;1050945;28;20074;-69
2023/12/02 02:16:37;;;;;;;102.65;42.50;;;;;;;;;;1050994;28;20526;-69
2023/12/02 02:17:07;;;;;;;109.15;43.03;;;;;;;;;;1050152;28;20040;-69
2023/12/02 02:17:38;;;;;;;96.63;43.53;;;;;;;;;;1047192;28;20048;-69
2023/12/02 02:18:09;;;;;;;98.55;41.92;;;;;;;;;;1049368;28;20051;-68
2023/12/02 02:18:39;;;;;;;102.82;42.47;;;;;;;;;;1050751;28;20040;-69
2023/12/02 02:19:10;;;;;;;105.07;42.13;;;;;;;;;;1051006;28;20072;-68
2023/12/02 02:19:41;;;;;;;98.00;44.30;;;;;;;;;;1049505;28;20109;-69
2023/12/02 02:20:11;;;;;;;101.10;43.08;;;;;;;;;;1051253;28;20118;-69
2023/12/02 02:20:47;;;;;;;98.95;42.45;;;;;;;;;;1050703;28;20067;-69
2023/12/02 02:21:21;;;;;;;101.13;43.08;;;;;;;;;;1049482;28;20415;-68
2023/12/02 02:21:52;;;;;;;99.35;43.30;;;;;;;;;;1045110;28;20461;-69
2023/12/02 02:22:23;;;;;;;104.20;42.47;;;;;;;;;;1047817;28;20052;-68
2023/12/02 02:22:54;;;;;;;106.28;42.30;;;;;;;;;;1046776;28;20393;-68
2023/12/02 02:23:24;;;;;;;95.60;41.58;;;;;;;;;;1048197;28;20036;-68
2023/12/02 02:23:55;;;;;;;90.07;40.67;;;;;;;;;;1051024;28;20051;-69
2023/12/02 02:24:25;;;;;;;95.00;41.47;;;;;;;;;;1048715;28;20055;-69
2023/12/02 02:24:56;;;;;;;90.68;40.53;;;;;;;;;;1048673;28;20066;-69
2023/12/02 02:25:27;;;;;;;99.93;42.47;;;;;;;;;;1049202;28;20051;-69
2023/12/02 02:25:57;;;;;;;100.53;41.72;;;;;;;;;;1050846;28;20097;-69
2023/12/02 02:26:28;;;;;;;97.38;41.60;;;;;;;;;;1050532;28;20119;-69
2023/12/02 02:26:58;;;;;;;85.32;39.28;;;;;;;;;;1049719;28;20051;-69
2023/12/02 02:27:29;;;;;;;104.43;40.88;;;;;;;;;;1047625;28;20068;-69
2023/12/02 02:28:00;;;;;;;96.05;40.25;;;;;;;;;;1046055;28;20086;-69
2023/12/02 02:28:30;;;;;;;91.40;40.75;;;;;;;;;;1048025;28;20122;-68
2023/12/02 02:29:01;;;;;;;97.07;41.70;;;;;;;;;;1050809;28;20044;-69
2023/12/02 02:29:32;;;;;;;88.30;39.72;;;;;;;;;;1047080;28;20497;-69
2023/12/02 02:30:02;;;;;;;94.10;41.78;;;;;;;;;;1046549;28;20048;-69
2023/12/02 02:30:33;;;;;;;96.45;41.65;;;;;;;;;;1043527;28;20045;-69
2023/12/02 02:31:04;;;;;;;105.85;42.10;;;;;;;;;;1045364;28;20051;-69
2023/12/02 02:31:34;;;;;;;96.53;43.10;;;;;;;;;;1043807;28;20048;-68
2023/12/02 02:32:05;;;;;;;95.75;39.92;;;;;;;;;;1046895;28;20719;-69
2023/12/02 02:32:36;;;;;;;92.90;40.58;;;;;;;;;;1043716;28;20048;-68
2023/12/02 02:33:06;;;;;;;97.82;39.50;;;;;;;;;;1045669;28;20103;-68
2023/12/02 02:33:37;;;;;;;92.65;41.60;;;;;;;;;;1042897;28;20047;-69
2023/12/02 02:34:08;;;;;;;94.85;41.20;;;;;;;;;;1044863;28;20052;-69
2023/12/02 02:34:40;;;;;;;94.53;42.17;;;;;;;;;;1044989;28;20102;-69
2023/12/02 02:35:10;;;;;;;100.22;41.90;;;;;;;;;;1044947;28;20040;-70
2023/12/02 02:35:42;;;;;;;97.13;41.33;;;;;;;;;;1044345;28;20080;-69
2023/12/02 02:36:13;;;;;;;96.82;44.08;;;;;;;;;;1042756;28;20033;-68
2023/12/02 02:36:44;;;;;;;107.82;43.00;;;;;;;;;;1043507;28;20119;-69
2023/12/02 02:37:15;;;;;;;100.45;41.60;;;;;;;;;;1044971;28;20055;-68
2023/12/02 02:37:45;;;;;;;105.90;41.70;;;;;;;;;;1046826;28;20036;-69
2023/12/02 02:38:16;;;;;;;96.30;41.50;;;;;;;;;;1045926;28;20168;-68
2023/12/02 02:38:46;;;;;;;99.15;41.90;;;;;;;;;;1045993;28;20049;-69
2023/12/02 02:39:17;;;;;;;101.93;42.22;;;;;;;;;;1044667;28;20089;-69
2023/12/02 02:39:47;;;;;;;98.75;40.97;;;;;;;;;;1043507;28;20136;-68
2023/12/02 02:40:19;;;;;;;106.55;43.85;;;;;;;;;;1044692;28;20063;-69
2023/12/02 02:40:49;;;;;;;100.05;42.80;;;;;;;;;;1044898;28;20132;-68
2023/12/02 02:41:20;;;;;;;104.82;42.10;;;;;;;;;;1042799;28;20041;-68
2023/12/02 02:41:50;;;;;;;100.10;42.38;;;;;;;;;;1045418;28;20044;-69
2023/12/02 02:42:21;;;;;;;95.93;42.85;;;;;;;;;;1044838;28;20144;-68
2023/12/02 02:42:51;;;;;;;108.80;43.28;;;;;;;;;;1043694;28;20033;-69
2023/12/02 02:43:22;;;;;;;96.18;41.53;;;;;;;;;;1043515;28;20386;-69
2023/12/02 02:43:54;;;;;;;101.45;42.85;;;;;;;;;;1043794;28;20116;-69
2023/12/02 02:44:24;;;;;;;111.72;43.15;;;;;;;;;;1044021;28;20119;-69
2023/12/02 02:44:55;;;;;;;103.28;41.97;;;;;;;;;;1045108;28;20463;-69
2023/12/02 02:45:26;;;;;;;100.32;43.85;;;;;;;;;;1043219;28;20040;-68
2023/12/02 02:45:56;;;;;;;100.70;42.95;;;;;;;;;;1044029;28;20044;-68
2023/12/02 02:46:27;;;;;;;107.07;43.53;;;;;;;;;;1043945;28;20121;-69
2023/12/02 02:46:57;;;;;;;99.10;44.08;;;;;;;;;;1044452;28;20631;-68
2023/12/02 02:47:28;;;;;;;97.75;43.45;;;;;;;;;;1043361;28;20049;-68
2023/12/02 02:47:58;;;;;;;97.05;42.75;;;;;;;;;;1043552;28;20417;-68
2023/12/02 02:48:29;;;;;;;105.13;42.45;;;;;;;;;;1042566;28;20144;-69
2023/12/02 02:49:00;;;;;;;100.35;43.00;;;;;;;;;;1045255;28;20036;-69
2023/12/02 02:49:30;;;;;;;100.07;42.22;;;;;;;;;;1044507;28;20059;-69
2023/12/02 02:50:01;;;;;;;98.80;43.63;;;;;;;;;;1047234;28;20045;-69
2023/12/02 02:50:32;;;;;;;94.70;42.33;;;;;;;;;;1042483;28;20070;-69
2023/12/02 02:51:03;;;;;;;91.97;39.67;;;;;;;;;;1044403;28;20409;-69
2023/12/02 02:51:33;;;;;;;104.10;41.45;;;;;;;;;;1043300;28;20390;-68
2023/12/02 02:52:04;;;;;;;106.50;41.92;;;;;;;;;;1046359;28;20044;-69
2023/12/02 02:52:34;;;;;;;101.15;41.83;;;;;;;;;;1042792;28;20052;-69
2023/12/02 02:53:05;;;;;;;103.45;42.58;;;;;;;;;;1044084;28;20153;-69
2023/12/02 02:53:36;;;;;;;102.35;43.95;;;;;;;;;;1043425;28;20045;-69
2023/12/02 02:54:06;;;;;;;96.97;42.78;;;;;;;;;;1047266;28;20399;-69
2023/12/02 02:54:37;;;;;;;102.50;42.08;;;;;;;;;;1044302;28;20056;-68
2023/12/02 02:55:07;;;;;;;107.72;41.95;;;;;;;;;;1043585;28;20040;-68
2023/12/02 02:55:38;;;;;;;97.95;43.67;;;;;;;;;;1045771;28;20069;-69
2023/12/02 02:56:09;;;;;;;100.55;42.67;;;;;;;;;;1045972;28;20044;-69
2023/12/02 02:56:39;;;;;;;102.10;42.35;;;;;;;;;;1043848;28;20076;-69
2023/12/02 02:57:10;;;;;;;110.50;43.80;;;;;;;;;;1042964;28;20037;-69
2023/12/02 02:57:41;;;;;;;103.15;42.40;;;;;;;;;;1043727;28;20400;-69
2023/12/02 02:58:11;;;;;;;97.18;42.88;;;;;;;;;;1045188;28;20630;-68